Cote D IVoirian Star — A8SL4 — position and weather

sailwx.info

Track history (hours):
 
Tides and Currents Weather Stations Pressure Air Temp Water Temp Dewpoint Dewpoint Depression Visibility Wind Speed Wind Dir Waves Ship Positions

Cote D IVoirian Star

Last reported at 2014-Jul-28 04:08 UTC. Time now 2014-Jul-28 14:28 UTC.
Position N 51°08' E 001°20'.

Length 185 m; draft 7.9 m.

Type: Cargo ship. MMSI: 636014241.

Date/timePositionNaut miles runAvg speedWind from/ knotsBaromVisibWave heightAir tempDewpointWater temp
2014-Jul-28 04:08N 51°08' E 001°20'0 0.0
2014-Jul-28 03:14N 51°08' E 001°20'0 0.0
2014-Jul-28 02:22N 51°08' E 001°20'0 0.3
2014-Jul-28 01:06N 51°07' E 001°21'3 6.0
2014-Jul-28 00:33N 51°07' E 001°26'3 3.2
2014-Jul-27 23:33N 51°05' E 001°30'5 4.7
2014-Jul-27 22:33N 51°01' E 001°32'1110.8
2014-Jul-27 21:33N 50°51' E 001°24'2612.0
2014-Jul-27 19:24N 50°31' E 000°59'1011.2
2014-Jul-27 18:33N 50°27' E 000°45'1918.6
2014-Jul-27 17:30N 50°22' E 000°16'1717.6
2014-Jul-27 16:33N 50°18' W 000°10'1312.4
2014-Jul-27 15:32N 50°15' W 000°29'21012.2
2014-Jul-26 22:25N 48°51' W 005°25'4415.3
2014-Jul-26 19:33N 48°15' W 006°02'1615.7
2014-Jul-26 18:33N 48°02' W 006°15'2216.1
2014-Jul-26 17:13N 47°44' W 006°33'1116.6
2014-Jul-26 16:33N 47°35' W 006°43'1616.0
2014-Jul-26 15:33N 47°22' W 006°56'  
Track history (hours):
 
Tides and Currents Weather Stations Pressure Air Temp Water Temp Dewpoint Dewpoint Depression Visibility Wind Speed Wind Dir Waves Ship Positions

Cote D IVoirian Star

Last reported at 2014-Jul-28 04:08 UTC. Time now 2014-Jul-28 14:28 UTC.
Position N 51°08' E 001°20'.

Length 185 m; draft 7.9 m.

Type: Cargo ship. MMSI: 636014241.

Date/timePositionNaut miles runAvg speedWind from/ knotsBaromVisibWave heightAir tempDewpointWater temp
2014-Jul-28 04:08N 51°08' E 001°20'0 0.0
2014-Jul-28 03:14N 51°08' E 001°20'0 0.0
2014-Jul-28 02:22N 51°08' E 001°20'0 0.3
2014-Jul-28 01:06N 51°07' E 001°21'3 6.0
2014-Jul-28 00:33N 51°07' E 001°26'3 3.2
2014-Jul-27 23:33N 51°05' E 001°30'5 4.7
2014-Jul-27 22:33N 51°01' E 001°32'1110.8
2014-Jul-27 21:33N 50°51' E 001°24'2612.0
2014-Jul-27 19:24N 50°31' E 000°59'1011.2
2014-Jul-27 18:33N 50°27' E 000°45'1918.6
2014-Jul-27 17:30N 50°22' E 000°16'1717.6
2014-Jul-27 16:33N 50°18' W 000°10'1312.4
2014-Jul-27 15:32N 50°15' W 000°29'21012.2
2014-Jul-26 22:25N 48°51' W 005°25'4415.3
2014-Jul-26 19:33N 48°15' W 006°02'1615.7
2014-Jul-26 18:33N 48°02' W 006°15'2216.1
2014-Jul-26 17:13N 47°44' W 006°33'1116.6
2014-Jul-26 16:33N 47°35' W 006°43'1616.0
2014-Jul-26 15:33N 47°22' W 006°56'  

Dump ship's entire track history